Aviation Digital Data Service (ADDS)

Output produced by METARs form (1209 UTC 18 November 2017)
found at http://aviationweather.gov/adds/metars/
 
KHKS 181153Z AUTO 17010KT 8SM BKN008 OVC028 17/17 A2986 RMK AO2 CIG 006V012 SLP104 T01720172 10172 20161 55008